Time;durP1;ratioP1;P1;durP2;ratioP2;P2;SDS_P1;SDS_P2;PMS_P1;PMS_P2;Temp;Humidity;BMP_temperature;BMP_pressure;BME280_temperature;BME280_humidity;BME280_pressure;Samples;Min_cycle;Max_cycle;Signal;HPM_P1;HPM_P2
2021/12/14 00:01:15;;;;;;;1.80;1.70;;;16.00;58.10;16.50;101899.00;;;;4948354;29;20181;-42
2021/12/14 00:03:42;;;;;;;1.80;1.70;;;16.00;58.30;16.50;101909.00;;;;4948215;28;20232;-43
2021/12/14 00:06:09;;;;;;;1.90;1.80;;;16.00;58.30;16.60;101901.00;;;;4946856;29;20546;-42
2021/12/14 00:08:47;;;;;;;1.93;1.73;;;16.00;58.30;16.60;101897.00;;;;4948672;29;20202;-42
2021/12/14 00:11:28;;;;;;;1.80;1.70;;;16.00;58.30;16.60;101894.00;;;;4948180;29;20172;-42
2021/12/14 00:14:09;;;;;;;1.80;1.70;;;16.00;58.40;16.60;101884.00;;;;4948022;28;20240;-42
2021/12/14 00:16:35;;;;;;;2.00;1.80;;;16.00;58.50;16.70;101737.00;;;;4948539;28;20193;-42
2021/12/14 00:19:01;;;;;;;1.80;1.70;;;15.90;58.40;16.70;101893.00;;;;4948250;29;20185;-42
2021/12/14 00:21:30;;;;;;;1.80;1.70;;;15.90;58.60;16.70;101893.00;;;;4949653;28;20177;-42
2021/12/14 00:24:09;;;;;;;1.80;1.70;;;15.90;58.60;16.70;101891.00;;;;4951618;28;20285;-42
2021/12/14 00:27:01;;;;;;;1.70;1.60;;;15.90;58.70;16.70;101887.00;;;;4952290;28;20173;-43
2021/12/14 00:29:29;;;;;;;1.70;1.60;;;15.90;58.70;16.70;101888.00;;;;4952470;28;20181;-42
2021/12/14 00:31:57;;;;;;;1.70;1.60;;;15.80;58.70;16.70;101899.00;;;;4951562;29;20663;-42
2021/12/14 00:34:35;;;;;;;1.67;1.57;;;15.80;58.80;16.70;101903.00;;;;4951637;29;20256;-42
2021/12/14 00:37:01;;;;;;;1.80;1.70;;;15.80;58.80;16.70;101898.00;;;;4952107;28;20216;-43
2021/12/14 00:39:27;;;;;;;1.80;1.70;;;15.80;58.90;16.70;101904.00;;;;4951458;29;20174;-42
2021/12/14 00:41:52;;;;;;;1.57;1.47;;;15.80;58.90;16.70;101901.00;;;;4951204;29;20188;-42
2021/12/14 00:44:18;;;;;;;1.83;1.73;;;15.80;58.90;16.70;101886.00;;;;4951248;28;20198;-41
2021/12/14 00:46:44;;;;;;;1.80;1.70;;;15.80;58.90;16.70;101901.00;;;;4950484;29;20190;-44
2021/12/14 00:49:11;;;;;;;1.70;1.60;;;15.80;59.00;16.70;101896.00;;;;4951559;29;20178;-41
2021/12/14 00:51:36;;;;;;;1.60;1.50;;;15.70;59.00;16.70;101890.00;;;;4951347;29;20429;-43
2021/12/14 00:54:06;;;;;;;1.60;1.50;;;15.70;59.00;16.70;101874.00;;;;4950448;29;20601;-42
2021/12/14 00:56:33;;;;;;;1.80;1.70;;;15.70;59.10;16.70;101877.00;;;;4951382;29;20252;-41
2021/12/14 00:59:01;;;;;;;1.63;1.53;;;15.70;59.10;16.70;101870.00;;;;4951703;28;20185;-41
2021/12/14 01:01:31;;;;;;;1.80;1.70;;;15.70;59.20;16.70;101869.00;;;;4951494;29;20192;-43
2021/12/14 01:04:01;;;;;;;1.80;1.70;;;15.60;59.10;16.60;101862.00;;;;4950996;28;20201;-42
2021/12/14 01:06:30;;;;;;;1.70;1.60;;;15.70;59.20;16.60;101873.00;;;;4951050;29;20166;-42
2021/12/14 01:08:56;;;;;;;1.57;1.47;;;15.60;59.20;16.60;101850.00;;;;4951343;29;20177;-42
2021/12/14 01:11:34;;;;;;;1.87;1.77;;;15.60;59.10;16.60;101879.00;;;;4951251;29;20174;-43
2021/12/14 01:14:39;;;;;;;1.77;1.67;;;15.60;59.20;16.60;101875.00;;;;4951067;29;20480;-43
2021/12/14 01:17:14;;;;;;;1.70;1.60;;;15.60;59.20;16.60;101872.00;;;;4951377;28;20201;-42
2021/12/14 01:19:45;;;;;;;1.40;1.40;;;15.60;59.40;16.60;101876.00;;;;4951370;28;20297;-43
2021/12/14 01:22:43;;;;;;;1.60;1.50;;;15.60;59.40;16.50;101873.00;;;;4951086;29;20748;-43
2021/12/14 01:25:24;;;;;;;1.53;1.43;;;15.60;59.30;16.50;101876.00;;;;4950654;29;20337;-42
2021/12/14 01:28:00;;;;;;;1.50;1.40;;;15.50;59.40;16.50;101878.00;;;;4951126;29;20215;-43
2021/12/14 01:31:05;;;;;;;1.60;1.50;;;15.50;59.30;16.50;101889.00;;;;4951261;29;20210;-42
2021/12/14 01:33:31;;;;;;;1.60;1.50;;;15.50;59.40;16.50;101879.00;;;;4949873;28;20228;-43
2021/12/14 01:35:58;;;;;;;1.80;1.70;;;15.40;59.30;16.40;101864.00;;;;4950583;29;20189;-42
2021/12/14 01:40:57;;;;;;;1.50;1.40;;;15.40;59.30;16.40;101856.00;;;;4950767;28;20174;-42
2021/12/14 01:43:48;;;;;;;1.80;1.70;;;15.40;59.30;16.40;101853.00;;;;4950370;29;20205;-42
2021/12/14 01:46:20;;;;;;;1.70;1.60;;;15.40;59.30;16.40;101860.00;;;;4950508;29;20186;-42
2021/12/14 01:48:46;;;;;;;1.80;1.70;;;15.30;59.30;16.40;101875.00;;;;4950528;29;20173;-42
2021/12/14 01:51:12;;;;;;;1.50;1.40;;;15.30;59.20;16.40;101874.00;;;;4950043;29;20182;-41
2021/12/14 01:53:39;;;;;;;1.60;1.50;;;15.30;59.40;16.40;101890.00;;;;4950036;29;20712;-43
2021/12/14 01:56:09;;;;;;;1.60;1.50;;;15.30;59.40;16.40;101892.00;;;;4950257;28;20612;-42
2021/12/14 01:58:51;;;;;;;1.40;1.40;;;15.30;59.40;16.40;101896.00;;;;4950261;29;20609;-41
2021/12/14 02:01:36;;;;;;;1.70;1.60;;;15.30;59.40;16.40;101892.00;;;;4950205;28;20517;-42
2021/12/14 02:04:17;;;;;;;1.60;1.50;;;15.30;59.40;16.30;101878.00;;;;4949580;28;20193;-42
2021/12/14 02:06:43;;;;;;;1.60;1.50;;;15.20;59.30;16.30;101887.00;;;;4949167;29;20177;-42
2021/12/14 02:09:15;;;;;;;1.80;1.70;;;15.20;59.30;16.30;101886.00;;;;4949562;29;20263;-42
2021/12/14 02:11:47;;;;;;;1.80;1.70;;;15.20;59.30;16.30;101894.00;;;;4949573;29;20671;-42
2021/12/14 02:14:13;;;;;;;1.80;1.70;;;15.20;59.40;16.30;101887.00;;;;4949641;29;20205;-42
2021/12/14 02:16:38;;;;;;;1.60;1.50;;;15.20;59.40;16.30;101888.00;;;;4950229;29;20204;-43
2021/12/14 02:19:11;;;;;;;1.40;1.40;;;15.20;59.40;16.30;101873.00;;;;4948594;28;20184;-42
2021/12/14 02:21:57;;;;;;;1.60;1.50;;;15.20;59.40;16.30;101864.00;;;;4949705;28;20322;-42
2021/12/14 02:24:24;;;;;;;1.40;1.40;;;15.10;59.30;16.20;101857.00;;;;4949865;28;20276;-42
2021/12/14 02:26:50;;;;;;;1.50;1.40;;;15.10;59.30;16.20;101851.00;;;;4950006;28;20193;-42
2021/12/14 02:29:25;;;;;;;1.50;1.40;;;15.10;59.40;16.20;101856.00;;;;4949629;29;20185;-42
2021/12/14 02:31:50;;;;;;;1.40;1.30;;;15.10;59.40;16.20;101859.00;;;;4949573;28;20169;-42
2021/12/14 02:34:16;;;;;;;1.50;1.40;;;15.10;59.40;16.20;101879.00;;;;4949287;29;20604;-41
2021/12/14 02:36:47;;;;;;;1.60;1.50;;;15.10;59.40;16.20;101873.00;;;;4949861;28;20623;-42
2021/12/14 02:42:03;;;;;;;1.80;1.70;;;15.10;59.40;16.20;101844.00;;;;4949518;29;20158;-43
2021/12/14 02:44:29;;;;;;;1.63;1.53;;;15.00;59.40;16.20;101841.00;;;;4948448;28;20574;-42
2021/12/14 02:46:58;;;;;;;1.50;1.40;;;15.00;59.30;16.10;101848.00;;;;4949274;28;20185;-43
2021/12/14 02:49:27;;;;;;;1.70;1.60;;;15.00;59.40;15.90;101840.00;;;;4947970;29;20174;-42
2021/12/14 02:51:57;;;;;;;1.60;1.50;;;15.00;59.40;16.10;101813.00;;;;4949032;28;20760;-42
2021/12/14 02:54:34;;;;;;;1.77;1.67;;;15.00;59.40;16.10;101808.00;;;;4949201;28;20805;-43
2021/12/14 02:57:15;;;;;;;1.73;1.43;;;15.00;59.50;16.10;101825.00;;;;4948908;29;20196;-43
2021/12/14 02:59:42;;;;;;;1.60;1.50;;;15.00;59.40;16.10;101820.00;;;;4949145;29;20233;-43
2021/12/14 03:02:16;;;;;;;1.63;1.53;;;14.90;59.40;16.10;101804.00;;;;4949086;28;20185;-43
2021/12/14 03:04:55;;;;;;;1.70;1.60;;;15.00;59.40;16.10;101801.00;;;;4948877;29;20286;-43
2021/12/14 03:07:25;;;;;;;1.60;1.50;;;14.90;59.30;16.10;101804.00;;;;4949001;29;20236;-43
2021/12/14 03:10:00;;;;;;;1.60;1.50;;;14.90;59.40;16.10;101796.00;;;;4949241;28;20548;-43
2021/12/14 03:12:36;;;;;;;1.70;1.60;;;14.90;59.40;16.00;101821.00;;;;4949244;29;20177;-43
2021/12/14 03:15:10;;;;;;;1.63;1.53;;;14.90;59.50;16.00;101814.00;;;;4949398;28;20521;-43
2021/12/14 03:17:37;;;;;;;1.50;1.40;;;14.90;59.40;16.00;101827.00;;;;4949254;28;20203;-43
2021/12/14 03:20:36;;;;;;;1.70;1.60;;;14.90;59.40;16.00;101822.00;;;;4948671;29;20636;-42
2021/12/14 03:23:10;;;;;;;1.97;1.70;;;14.90;59.60;16.00;101822.00;;;;4948502;29;20200;-43
2021/12/14 03:25:39;;;;;;;1.30;1.30;;;14.90;59.40;16.00;101815.00;;;;4948856;29;20165;-44
2021/12/14 03:28:05;;;;;;;1.60;1.50;;;14.80;59.40;16.00;101806.00;;;;4948995;29;20271;-44
2021/12/14 03:30:36;;;;;;;1.80;1.70;;;14.80;59.50;16.00;101802.00;;;;4948677;29;20169;-42
2021/12/14 03:33:17;;;;;;;1.63;1.53;;;14.80;59.40;16.00;101806.00;;;;4948662;29;20251;-42
2021/12/14 03:35:51;;;;;;;1.70;1.60;;;14.80;59.50;16.00;101765.00;;;;4948430;28;20208;-43
2021/12/14 03:38:26;;;;;;;1.60;1.50;;;14.80;59.50;15.90;101777.00;;;;4948984;29;20177;-42
2021/12/14 03:41:17;;;;;;;1.70;1.60;;;14.80;59.40;15.90;101775.00;;;;4948510;29;20564;-42
2021/12/14 03:43:57;;;;;;;1.60;1.50;;;14.80;59.50;15.90;101780.00;;;;4948529;29;20590;-42
2021/12/14 03:46:25;;;;;;;1.60;1.50;;;14.80;59.50;15.90;101778.00;;;;4948851;28;20202;-42
2021/12/14 03:48:51;;;;;;;1.50;1.40;;;14.80;59.40;15.90;101769.00;;;;4948528;29;20517;-43
2021/12/14 03:51:23;;;;;;;1.80;1.70;;;14.80;59.50;15.90;101764.00;;;;4948338;29;20847;-43
2021/12/14 03:53:53;;;;;;;1.60;1.50;;;14.80;59.50;15.90;101770.00;;;;4948082;29;20200;-42
2021/12/14 03:56:19;;;;;;;1.70;1.60;;;14.70;59.40;15.90;101772.00;;;;4950200;28;20201;-43
2021/12/14 03:58:45;;;;;;;1.33;1.30;;;14.80;59.60;15.90;101785.00;;;;4951547;29;20204;-42
2021/12/14 04:01:16;;;;;;;1.67;1.57;;;14.80;59.50;15.90;101793.00;;;;4952214;29;20178;-43
2021/12/14 04:03:42;;;;;;;1.70;1.43;;;14.70;59.60;15.80;101807.00;;;;4952021;28;20433;-42
2021/12/14 04:06:08;;;;;;;1.70;1.60;;;14.70;59.60;15.80;101801.00;;;;4952671;29;20182;-42
2021/12/14 04:08:34;;;;;;;1.60;1.50;;;14.70;59.60;15.80;101804.00;;;;4952594;29;20547;-41
2021/12/14 04:11:01;;;;;;;1.70;1.60;;;14.70;59.60;15.80;101812.00;;;;4952356;29;20372;-43
2021/12/14 04:13:31;;;;;;;1.73;1.63;;;14.70;59.50;15.80;101813.00;;;;4951691;29;20201;-42
2021/12/14 04:15:57;;;;;;;1.63;1.53;;;14.70;59.60;15.80;101815.00;;;;4952430;29;20166;-43
2021/12/14 04:18:22;;;;;;;1.93;1.73;;;14.70;59.50;15.80;101814.00;;;;4952352;29;20177;-42
2021/12/14 04:20:52;;;;;;;1.63;1.53;;;14.70;59.50;15.80;101830.00;;;;4934423;29;20612;-42
2021/12/14 04:23:22;;;;;;;1.70;1.60;;;14.70;59.50;15.80;101834.00;;;;4951699;28;20276;-42
2021/12/14 04:25:48;;;;;;;1.57;1.47;;;14.70;59.40;15.70;101829.00;;;;4951586;28;20166;-43
2021/12/14 04:28:17;;;;;;;1.67;1.57;;;14.70;59.40;15.70;101821.00;;;;4951811;29;20170;-42
2021/12/14 04:30:43;;;;;;;1.60;1.50;;;14.70;59.40;15.70;101812.00;;;;4951646;29;20177;-43
2021/12/14 04:33:13;;;;;;;1.70;1.60;;;14.60;59.40;15.70;101819.00;;;;4951292;29;20713;-42
2021/12/14 04:35:40;;;;;;;1.77;1.67;;;14.60;59.40;15.70;101817.00;;;;4951777;29;20185;-42
2021/12/14 04:38:14;;;;;;;1.60;1.50;;;14.60;59.30;15.70;101819.00;;;;4951593;28;20217;-42
2021/12/14 04:54:17;;;;;;;2.07;1.67;;;14.60;59.50;15.70;101827.00;;;;4951612;28;20218;-43
2021/12/14 04:56:45;;;;;;;1.80;1.70;;;14.60;59.50;15.70;101825.00;;;;4951841;29;20459;-42
2021/12/14 04:59:27;;;;;;;1.83;1.60;;;14.60;59.50;15.70;101830.00;;;;4951526;28;20174;-42
2021/12/14 05:02:02;;;;;;;1.60;1.50;;;14.50;59.40;15.60;101823.00;;;;4951084;28;20351;-43
2021/12/14 05:04:28;;;;;;;1.63;1.53;;;14.50;59.50;15.60;101830.00;;;;4951400;29;20201;-43
2021/12/14 05:07:03;;;;;;;1.70;1.60;;;14.50;59.40;15.60;101832.00;;;;4951680;28;20174;-43
2021/12/14 05:09:35;;;;;;;1.73;1.63;;;14.50;59.40;15.60;101845.00;;;;4959635;28;20563;-43
2021/12/14 05:12:14;;;;;;;1.80;1.70;;;14.50;59.40;15.60;101831.00;;;;4970467;28;20833;-43
2021/12/14 05:14:41;;;;;;;1.70;1.60;;;14.50;59.50;15.60;101841.00;;;;4970067;28;20595;-42
2021/12/14 05:17:11;;;;;;;1.70;1.60;;;14.50;59.60;15.60;101847.00;;;;4970665;28;20626;-42
2021/12/14 05:19:38;;;;;;;1.77;1.67;;;14.50;59.40;15.60;101817.00;;;;4971139;28;20192;-43
2021/12/14 05:22:13;;;;;;;1.70;1.60;;;14.50;59.50;15.60;101845.00;;;;4968716;28;20178;-42
2021/12/14 05:24:42;;;;;;;1.50;1.40;;;14.50;59.70;15.60;101826.00;;;;4970178;28;20200;-42
2021/12/14 05:27:09;;;;;;;1.67;1.57;;;14.40;59.40;15.60;101827.00;;;;4969841;28;20188;-43
2021/12/14 05:29:35;;;;;;;1.80;1.70;;;14.50;59.80;15.60;101823.00;;;;4970309;28;20604;-43
2021/12/14 05:32:02;;;;;;;1.70;1.60;;;14.40;59.40;15.60;101823.00;;;;4969243;28;20177;-43
2021/12/14 05:34:28;;;;;;;1.60;1.50;;;14.50;59.50;15.50;101832.00;;;;4969646;28;20248;-42
2021/12/14 05:36:54;;;;;;;1.77;1.67;;;14.40;59.60;15.50;101829.00;;;;4968930;28;20209;-43
2021/12/14 05:44:44;;;;;;;1.70;1.60;;;14.40;59.60;15.50;101843.00;;;;4969814;28;20188;-42
2021/12/14 05:47:14;;;;;;;1.90;1.80;;;14.40;59.90;15.50;101840.00;;;;4969747;28;20223;-43
2021/12/14 05:49:46;;;;;;;2.07;1.70;;;14.40;59.80;15.50;101830.00;;;;4970089;28;20651;-42
2021/12/14 05:52:27;;;;;;;1.90;1.80;;;14.40;59.80;15.50;101828.00;;;;4968402;28;20212;-42
2021/12/14 05:54:54;;;;;;;2.27;1.60;;;14.40;59.50;15.50;101830.00;;;;4969407;28;20693;-44
2021/12/14 05:57:22;;;;;;;1.90;1.80;;;14.40;59.60;15.50;101822.00;;;;4969562;28;20226;-43
2021/12/14 05:59:48;;;;;;;1.90;1.80;;;14.40;59.50;15.50;101820.00;;;;4969657;28;20177;-43
2021/12/14 06:02:14;;;;;;;2.00;1.90;;;14.40;59.60;15.50;101821.00;;;;4968936;28;20177;-43
2021/12/14 06:04:45;;;;;;;2.60;2.00;;;14.40;59.80;15.50;101826.00;;;;4966979;28;20220;-42
2021/12/14 06:07:10;;;;;;;2.00;1.80;;;14.40;59.70;15.50;101817.00;;;;4968067;28;20208;-43
2021/12/14 06:09:40;;;;;;;1.80;1.70;;;14.40;59.60;15.50;101826.00;;;;4969406;28;20200;-42
2021/12/14 06:12:24;;;;;;;1.80;1.70;;;14.40;59.80;15.50;101813.00;;;;4967942;28;20181;-42
2021/12/14 06:14:52;;;;;;;1.97;1.87;;;14.30;59.60;15.50;101821.00;;;;4968624;28;20209;-44
2021/12/14 06:17:30;;;;;;;1.83;1.67;;;14.30;59.50;15.20;101808.00;;;;4969340;28;20240;-44
2021/12/14 06:20:25;;;;;;;2.17;1.97;;;14.40;59.50;15.50;101802.00;;;;4969360;28;20161;-44
2021/12/14 06:22:52;;;;;;;2.07;1.73;;;14.40;59.30;15.50;101816.00;;;;4967199;28;20185;-42
2021/12/14 06:25:27;;;;;;;1.97;1.80;;;14.40;59.50;15.50;101827.00;;;;4968894;28;20165;-42
2021/12/14 06:27:55;;;;;;;1.70;1.60;;;14.40;59.60;15.40;101825.00;;;;4968749;28;20533;-42
2021/12/14 06:30:28;;;;;;;2.00;1.90;;;14.40;59.60;15.40;101836.00;;;;4968904;28;20565;-42
2021/12/14 06:33:01;;;;;;;1.90;1.80;;;14.40;59.60;15.40;101838.00;;;;4968244;28;20564;-43
2021/12/14 06:35:46;;;;;;;1.90;1.80;;;14.30;59.30;15.50;101833.00;;;;4969097;28;20204;-42
2021/12/14 06:38:28;;;;;;;1.83;1.73;;;14.40;59.30;15.50;101851.00;;;;4968353;28;20224;-43
2021/12/14 06:41:02;;;;;;;2.00;1.90;;;14.30;60.30;15.40;101850.00;;;;4968575;28;20173;-43
2021/12/14 06:43:54;;;;;;;2.17;2.00;;;14.40;59.30;15.50;101846.00;;;;4968068;28;20759;-42
2021/12/14 06:46:24;;;;;;;1.90;1.80;;;14.30;59.20;15.40;101849.00;;;;4969003;28;20204;-43
2021/12/14 06:48:59;;;;;;;2.10;1.90;;;14.30;58.90;15.40;101848.00;;;;4968560;28;20616;-43
2021/12/14 06:51:39;;;;;;;3.27;2.00;;;14.30;59.20;15.40;101840.00;;;;4968125;28;20172;-42
2021/12/14 06:54:11;;;;;;;2.97;2.10;;;14.30;59.60;15.40;101835.00;;;;4968215;28;20345;-43
2021/12/14 06:56:37;;;;;;;2.90;1.80;;;14.30;59.50;15.40;101849.00;;;;4968255;28;20209;-43
2021/12/14 06:59:09;;;;;;;2.37;2.17;;;14.30;59.70;15.40;101847.00;;;;4968179;28;20268;-43
2021/12/14 07:01:48;;;;;;;3.80;1.97;;;14.30;59.80;15.40;101842.00;;;;4966968;28;20173;-42
2021/12/14 07:04:18;;;;;;;9.70;2.70;;;14.30;59.90;15.40;101839.00;;;;4968040;28;20490;-42
2021/12/14 07:06:49;;;;;;;13.20;2.70;;;14.30;60.20;15.40;101847.00;;;;4967757;28;20212;-43
2021/12/14 07:09:21;;;;;;;6.83;2.70;;;14.20;60.20;15.40;101856.00;;;;4967032;28;20176;-42
2021/12/14 07:12:14;;;;;;;6.77;2.43;;;14.20;60.50;15.40;101856.00;;;;4967339;28;20578;-42
2021/12/14 07:14:53;;;;;;;5.57;2.23;;;14.20;60.20;15.30;101878.00;;;;4955748;28;20684;-43
2021/12/14 07:17:30;;;;;;;8.40;2.70;;;14.20;60.20;15.30;101887.00;;;;4948042;28;20255;-42
2021/12/14 07:20:22;;;;;;;7.83;2.40;;;14.20;60.30;15.30;101891.00;;;;4950711;28;20216;-43
2021/12/14 07:22:56;;;;;;;8.60;2.37;;;14.20;60.30;15.30;101885.00;;;;4966698;28;20184;-41
2021/12/14 07:25:33;;;;;;;8.50;2.70;;;14.20;60.20;15.30;101892.00;;;;4964693;28;20173;-42
2021/12/14 07:28:13;;;;;;;7.90;2.43;;;14.20;60.20;15.30;101874.00;;;;4969115;28;20216;-44
2021/12/14 07:30:45;;;;;;;5.90;2.40;;;14.20;60.30;15.30;101814.00;;;;4959547;28;20280;-43
2021/12/14 07:33:23;;;;;;;4.73;2.20;;;14.20;60.20;15.30;101893.00;;;;4958779;28;20201;-44
2021/12/14 07:36:06;;;;;;;4.97;2.30;;;14.20;60.40;15.30;101878.00;;;;4961814;28;20283;-43
2021/12/14 07:38:40;;;;;;;5.23;2.37;;;14.20;60.20;15.30;101882.00;;;;4949741;29;20582;-43
2021/12/14 07:41:14;;;;;;;5.27;2.40;;;14.20;60.30;15.30;101891.00;;;;4949369;28;20182;-43
2021/12/14 07:44:02;;;;;;;7.27;2.00;;;14.20;60.50;15.30;101896.00;;;;4964082;28;20216;-43
2021/12/14 07:46:58;;;;;;;2.60;2.40;;;14.20;60.20;15.30;101904.00;;;;4969392;28;20602;-42
2021/12/14 07:49:36;;;;;;;2.80;2.00;;;14.20;59.70;15.30;101903.00;;;;4967162;28;20214;-42
2021/12/14 07:52:08;;;;;;;3.50;2.03;;;14.20;60.20;15.30;101908.00;;;;4968439;28;20162;-43
2021/12/14 07:54:59;;;;;;;3.37;2.20;;;14.20;60.30;15.30;101917.00;;;;4968930;28;20189;-43
2021/12/14 07:57:28;;;;;;;5.73;2.40;;;14.20;59.90;15.30;101934.00;;;;4949063;28;20645;-43
2021/12/14 07:59:58;;;;;;;5.73;2.30;;;14.20;59.80;15.30;101936.00;;;;4950383;28;20526;-42
2021/12/14 08:02:31;;;;;;;2.40;2.20;;;14.20;59.80;15.30;101941.00;;;;4948844;28;20174;-43
2021/12/14 08:05:04;;;;;;;3.23;2.20;;;14.20;60.00;15.30;101937.00;;;;4949339;28;20200;-42
2021/12/14 08:07:46;;;;;;;3.00;2.00;;;14.20;59.90;15.30;101936.00;;;;4948624;28;20189;-42
2021/12/14 08:10:32;;;;;;;2.80;2.50;;;14.20;59.70;15.30;101952.00;;;;4948739;28;20260;-42
2021/12/14 08:13:14;;;;;;;5.03;2.30;;;14.20;59.80;15.30;101949.00;;;;4948925;28;20672;-45
2021/12/14 08:15:55;;;;;;;3.40;1.80;;;14.20;59.70;15.30;101943.00;;;;4950049;28;20170;-42
2021/12/14 08:18:32;;;;;;;3.00;2.10;;;14.20;59.60;15.00;101945.00;;;;4949489;28;20209;-42
2021/12/14 08:21:04;;;;;;;2.87;1.90;;;14.20;59.50;15.30;101959.00;;;;4949363;28;20273;-42
2021/12/14 08:23:38;;;;;;;2.73;2.17;;;14.20;59.70;15.30;101971.00;;;;4949571;28;20185;-42
2021/12/14 08:26:11;;;;;;;3.90;2.10;;;14.20;59.50;15.30;101955.00;;;;4949743;28;20161;-42
2021/12/14 08:29:03;;;;;;;4.77;2.10;;;14.20;59.60;15.30;101945.00;;;;4960468;28;20185;-44
2021/12/14 08:31:35;;;;;;;5.23;2.20;;;14.10;59.80;15.30;101946.00;;;;4968043;28;20158;-44
2021/12/14 08:34:22;;;;;;;3.63;2.20;;;14.10;60.00;15.20;101951.00;;;;4967837;28;20195;-44
2021/12/14 08:37:00;;;;;;;3.80;2.23;;;14.10;60.20;15.20;101952.00;;;;4968460;28;20263;-43
2021/12/14 08:39:32;;;;;;;2.40;2.20;;;14.10;60.10;15.20;101955.00;;;;4961689;28;20158;-44
2021/12/14 08:42:23;;;;;;;5.87;2.33;;;14.10;60.00;15.20;101964.00;;;;4948631;28;20233;-42
2021/12/14 08:44:56;;;;;;;2.60;2.17;;;14.20;59.80;15.20;101982.00;;;;4951248;28;20696;-43
2021/12/14 08:47:33;;;;;;;3.53;1.87;;;14.10;59.60;15.20;101975.00;;;;4952484;28;20189;-44
2021/12/14 08:50:01;;;;;;;3.53;2.00;;;14.20;59.80;15.20;101982.00;;;;4969135;28;20189;-43
2021/12/14 08:52:29;;;;;;;2.50;2.00;;;14.20;59.70;15.20;101978.00;;;;4971149;28;20184;-43
2021/12/14 08:54:58;;;;;;;2.63;2.10;;;14.20;59.80;15.20;101977.00;;;;4971857;28;20267;-43
2021/12/14 08:57:25;;;;;;;3.00;2.10;;;14.10;59.60;15.20;101973.00;;;;4972325;28;20193;-42
2021/12/14 08:59:58;;;;;;;2.77;2.20;;;14.20;59.80;15.20;101967.00;;;;4972433;28;20177;-43
2021/12/14 09:02:25;;;;;;;3.63;2.10;;;14.20;59.60;15.20;101963.00;;;;4971044;28;20298;-42
2021/12/14 09:05:03;;;;;;;2.30;2.10;;;14.10;59.60;15.20;101961.00;;;;4971751;28;20631;-42
2021/12/14 09:07:30;;;;;;;2.10;1.90;;;14.10;59.50;15.20;101958.00;;;;4970977;28;20173;-44
2021/12/14 09:09:56;;;;;;;2.97;2.33;;;14.10;60.20;15.20;101963.00;;;;4971831;28;20245;-43
2021/12/14 09:12:25;;;;;;;2.67;2.20;;;14.10;59.50;15.20;101961.00;;;;4971417;28;20177;-44
2021/12/14 09:14:51;;;;;;;3.03;2.10;;;14.10;59.40;15.20;101962.00;;;;4971848;28;20279;-44
2021/12/14 09:17:18;;;;;;;3.07;2.10;;;14.10;59.30;15.20;101956.00;;;;4972334;28;20617;-44
2021/12/14 09:19:53;;;;;;;2.67;2.20;;;14.10;59.60;15.20;101958.00;;;;4972506;28;20203;-44
2021/12/14 09:22:24;;;;;;;3.50;2.43;;;14.10;60.00;15.30;101958.00;;;;4966896;28;20219;-45
2021/12/14 09:24:50;;;;;;;4.03;2.20;;;14.20;60.30;15.30;101951.00;;;;4954919;28;20186;-44
2021/12/14 09:27:20;;;;;;;2.20;2.00;;;14.40;60.20;15.40;101960.00;;;;4970293;28;20259;-44
2021/12/14 09:29:46;;;;;;;5.20;2.13;;;14.60;59.90;15.50;101959.00;;;;4952531;28;20555;-43
2021/12/14 09:32:17;;;;;;;3.87;2.10;;;14.90;59.70;15.60;101966.00;;;;4952125;28;20664;-43
2021/12/14 09:34:43;;;;;;;2.50;2.30;;;15.20;59.40;15.80;101966.00;;;;4970715;28;20247;-42
2021/12/14 09:37:10;;;;;;;2.13;1.93;;;15.50;59.00;16.00;101970.00;;;;4970835;28;20753;-43
2021/12/14 09:39:41;;;;;;;2.30;1.90;;;15.80;58.50;16.10;101969.00;;;;4952219;28;20220;-43
2021/12/14 09:42:11;;;;;;;3.40;2.07;;;15.90;58.30;16.20;101977.00;;;;4951652;28;20213;-43
2021/12/14 09:44:36;;;;;;;2.27;1.83;;;16.00;58.40;16.40;101988.00;;;;4950361;29;20190;-43
2021/12/14 09:47:09;;;;;;;2.63;2.03;;;16.10;58.30;16.40;101979.00;;;;4952129;28;20199;-43
2021/12/14 09:49:36;;;;;;;5.27;2.13;;;16.10;58.30;16.50;101971.00;;;;4952857;28;20166;-43
2021/12/14 09:52:11;;;;;;;2.70;2.10;;;16.10;58.30;16.60;101981.00;;;;4951593;29;20206;-43
2021/12/14 09:54:37;;;;;;;2.70;1.80;;;16.20;58.40;16.70;101977.00;;;;4951320;28;20693;-43
2021/12/14 09:57:24;;;;;;;2.00;1.80;;;16.10;58.40;16.70;101985.00;;;;4951626;29;20205;-44
2021/12/14 09:59:50;;;;;;;1.93;1.80;;;16.20;58.50;16.70;101981.00;;;;4952143;29;20199;-43
2021/12/14 10:02:31;;;;;;;3.30;1.90;;;16.10;58.50;16.80;101987.00;;;;4951765;29;20206;-42
2021/12/14 10:05:01;;;;;;;2.20;2.00;;;16.20;58.60;16.80;101982.00;;;;4951699;29;20185;-43
2021/12/14 10:07:27;;;;;;;5.40;2.03;;;16.10;58.70;16.80;101978.00;;;;4951947;29;20215;-43
2021/12/14 10:09:55;;;;;;;1.90;1.80;;;16.10;58.70;16.80;101979.00;;;;4951957;29;20174;-43
2021/12/14 10:15:05;;;;;;;2.03;1.90;;;16.10;58.90;16.80;101976.00;;;;4951486;29;20202;-43
2021/12/14 10:17:31;;;;;;;2.00;1.90;;;16.10;59.00;16.90;101985.00;;;;4950671;29;20325;-43
2021/12/14 10:19:56;;;;;;;1.90;1.80;;;16.10;59.00;16.90;101980.00;;;;4951621;29;20328;-43
2021/12/14 10:22:30;;;;;;;1.90;1.80;;;16.00;59.10;16.90;101981.00;;;;4951075;29;20178;-43
2021/12/14 10:24:59;;;;;;;2.63;1.93;;;16.10;59.20;16.90;101986.00;;;;4950003;29;20204;-43
2021/12/14 10:27:28;;;;;;;2.17;1.97;;;16.00;59.20;16.90;101988.00;;;;4951399;29;20610;-43
2021/12/14 10:29:55;;;;;;;2.17;1.70;;;16.00;59.20;16.90;102001.00;;;;4951542;29;20181;-43
2021/12/14 10:32:26;;;;;;;1.97;1.80;;;16.00;59.30;16.90;102001.00;;;;4951440;28;20205;-44
2021/12/14 10:34:58;;;;;;;1.80;1.70;;;16.00;59.30;16.90;101986.00;;;;4951295;29;20268;-42
2021/12/14 10:37:38;;;;;;;1.90;1.80;;;16.00;59.40;16.80;101985.00;;;;4951099;28;20677;-43
2021/12/14 10:45:34;;;;;;;1.90;1.80;;;15.90;59.50;16.80;101975.00;;;;4951055;29;20180;-43
2021/12/14 10:48:00;;;;;;;2.10;1.90;;;15.90;59.40;16.80;101958.00;;;;4951057;29;20221;-42
2021/12/14 10:50:31;;;;;;;2.20;2.00;;;15.80;59.30;16.80;101976.00;;;;4950719;29;20182;-42
2021/12/14 10:52:57;;;;;;;2.00;1.90;;;15.80;59.40;16.80;101974.00;;;;4950571;28;20202;-43
2021/12/14 10:55:32;;;;;;;2.20;2.00;;;15.80;59.60;16.80;101974.00;;;;4950913;29;20188;-42
2021/12/14 10:57:58;;;;;;;2.20;2.00;;;15.80;59.60;16.80;101968.00;;;;4951437;28;20224;-42
2021/12/14 11:00:42;;;;;;;2.10;1.90;;;15.80;59.60;16.80;101969.00;;;;4950722;29;20174;-44
2021/12/14 11:03:12;;;;;;;1.90;1.80;;;15.80;59.60;16.80;101967.00;;;;4950321;29;20209;-43
2021/12/14 11:05:39;;;;;;;1.93;1.83;;;15.80;59.60;16.70;101973.00;;;;4950360;28;20162;-43
2021/12/14 11:08:17;;;;;;;1.80;1.70;;;15.70;59.50;16.70;101966.00;;;;4950786;29;20326;-43
2021/12/14 11:10:43;;;;;;;2.23;1.90;;;15.70;59.60;16.70;101977.00;;;;4950237;28;20193;-44
2021/12/14 11:13:11;;;;;;;1.77;1.67;;;15.70;59.50;16.70;101965.00;;;;4961137;28;20208;-43
2021/12/14 11:15:47;;;;;;;2.50;1.73;;;15.70;59.70;16.70;101964.00;;;;4962616;28;20182;-43
2021/12/14 11:18:20;;;;;;;2.00;1.80;;;15.70;59.70;16.70;101958.00;;;;4963037;28;20230;-43
2021/12/14 11:20:57;;;;;;;1.90;1.80;;;15.70;59.70;16.70;101958.00;;;;4969808;28;20644;-42
2021/12/14 11:23:24;;;;;;;2.03;1.93;;;15.60;59.70;16.70;101955.00;;;;4957188;28;20207;-42
2021/12/14 11:26:32;;;;;;;2.00;1.90;;;15.60;59.60;16.70;101953.00;;;;4969175;28;20168;-42
2021/12/14 11:29:19;;;;;;;1.90;1.80;;;15.60;59.60;16.60;101941.00;;;;4936214;29;20289;-43
2021/12/14 11:31:52;;;;;;;2.10;1.90;;;15.60;59.70;16.60;101942.00;;;;4956729;28;20197;-43
2021/12/14 11:34:34;;;;;;;1.80;1.70;;;15.60;59.80;16.60;101939.00;;;;4969308;28;20251;-43
2021/12/14 11:37:04;;;;;;;2.00;1.90;;;15.60;59.80;16.60;101953.00;;;;4955918;28;20305;-43
2021/12/14 11:39:43;;;;;;;1.90;1.80;;;15.60;59.80;16.60;101949.00;;;;4959420;28;20261;-43
2021/12/14 11:42:19;;;;;;;2.03;1.83;;;15.50;59.80;16.60;101948.00;;;;4949733;29;20204;-43
2021/12/14 11:44:59;;;;;;;1.87;1.77;;;15.50;59.80;16.50;101940.00;;;;4951182;28;20219;-43